sensor_id;sensor_type;location;lat;lon;timestamp;temperature;humidity
53073;DHT22;38955;48.916;2.336;2023-06-22T00:00:34;22.00;96.90
53073;DHT22;38955;48.916;2.336;2023-06-22T00:02:36;22.10;96.90
53073;DHT22;38955;48.916;2.336;2023-06-22T00:04:38;22.10;96.80
53073;DHT22;38955;48.916;2.336;2023-06-22T00:06:40;22.10;96.80
53073;DHT22;38955;48.916;2.336;2023-06-22T00:08:42;22.10;96.80
53073;DHT22;38955;48.916;2.336;2023-06-22T00:10:45;22.10;96.80
53073;DHT22;38955;48.916;2.336;2023-06-22T00:12:48;22.10;96.70
53073;DHT22;38955;48.916;2.336;2023-06-22T00:14:50;22.10;96.70
53073;DHT22;38955;48.916;2.336;2023-06-22T00:16:53;22.10;96.70
53073;DHT22;38955;48.916;2.336;2023-06-22T00:18:56;22.10;96.70
53073;DHT22;38955;48.916;2.336;2023-06-22T00:21:02;22.10;96.70
53073;DHT22;38955;48.916;2.336;2023-06-22T00:23:05;22.00;96.80
53073;DHT22;38955;48.916;2.336;2023-06-22T00:25:11;22.10;96.80
53073;DHT22;38955;48.916;2.336;2023-06-22T00:27:13;22.00;96.70
53073;DHT22;38955;48.916;2.336;2023-06-22T00:29:15;22.10;96.70
53073;DHT22;38955;48.916;2.336;2023-06-22T00:31:17;22.10;96.70
53073;DHT22;38955;48.916;2.336;2023-06-22T00:33:21;22.20;96.60
53073;DHT22;38955;48.916;2.336;2023-06-22T00:35:23;22.20;96.60
53073;DHT22;38955;48.916;2.336;2023-06-22T00:37:30;22.20;96.60
53073;DHT22;38955;48.916;2.336;2023-06-22T00:39:32;22.10;96.60
53073;DHT22;38955;48.916;2.336;2023-06-22T00:41:35;22.10;96.60
53073;DHT22;38955;48.916;2.336;2023-06-22T00:43:37;22.10;96.60
53073;DHT22;38955;48.916;2.336;2023-06-22T00:45:39;22.10;96.60
53073;DHT22;38955;48.916;2.336;2023-06-22T00:47:41;22.00;96.70
53073;DHT22;38955;48.916;2.336;2023-06-22T00:49:47;21.90;96.70
53073;DHT22;38955;48.916;2.336;2023-06-22T00:51:50;21.90;97.00
53073;DHT22;38955;48.916;2.336;2023-06-22T00:53:52;21.90;96.80
53073;DHT22;38955;48.916;2.336;2023-06-22T00:55:55;21.90;96.70
53073;DHT22;38955;48.916;2.336;2023-06-22T00:57:57;21.90;96.60
53073;DHT22;38955;48.916;2.336;2023-06-22T00:59:59;21.90;96.70
53073;DHT22;38955;48.916;2.336;2023-06-22T01:02:02;21.90;96.60
53073;DHT22;38955;48.916;2.336;2023-06-22T01:04:04;21.80;96.70
53073;DHT22;38955;48.916;2.336;2023-06-22T01:06:12;21.80;96.70
53073;DHT22;38955;48.916;2.336;2023-06-22T01:08:29;21.80;96.60
53073;DHT22;38955;48.916;2.336;2023-06-22T01:10:41;21.80;96.60
53073;DHT22;38955;48.916;2.336;2023-06-22T01:12:48;21.70;96.70
53073;DHT22;38955;48.916;2.336;2023-06-22T01:14:57;21.70;96.70
53073;DHT22;38955;48.916;2.336;2023-06-22T01:17:00;21.70;96.70
53073;DHT22;38955;48.916;2.336;2023-06-22T01:19:11;21.70;96.70
53073;DHT22;38955;48.916;2.336;2023-06-22T01:21:22;21.70;96.80
53073;DHT22;38955;48.916;2.336;2023-06-22T01:23:31;21.70;96.70
53073;DHT22;38955;48.916;2.336;2023-06-22T01:25:45;21.70;96.70
53073;DHT22;38955;48.916;2.336;2023-06-22T01:27:57;21.70;96.80
53073;DHT22;38955;48.916;2.336;2023-06-22T01:30:05;21.70;96.80
53073;DHT22;38955;48.916;2.336;2023-06-22T01:32:09;21.70;96.80
53073;DHT22;38955;48.916;2.336;2023-06-22T01:34:13;21.70;96.70
53073;DHT22;38955;48.916;2.336;2023-06-22T01:36:17;21.70;96.70
53073;DHT22;38955;48.916;2.336;2023-06-22T01:38:20;21.60;96.70
53073;DHT22;38955;48.916;2.336;2023-06-22T01:40:23;21.60;96.70
53073;DHT22;38955;48.916;2.336;2023-06-22T01:42:27;21.50;96.70
53073;DHT22;38955;48.916;2.336;2023-06-22T01:44:29;21.40;96.90
53073;DHT22;38955;48.916;2.336;2023-06-22T01:46:33;21.40;97.00
53073;DHT22;38955;48.916;2.336;2023-06-22T01:48:35;21.40;97.00
53073;DHT22;38955;48.916;2.336;2023-06-22T01:50:38;21.40;97.00
53073;DHT22;38955;48.916;2.336;2023-06-22T01:52:40;21.40;97.00
53073;DHT22;38955;48.916;2.336;2023-06-22T01:54:42;21.40;96.90
53073;DHT22;38955;48.916;2.336;2023-06-22T01:56:44;21.40;97.00
53073;DHT22;38955;48.916;2.336;2023-06-22T01:58:50;21.50;97.00
53073;DHT22;38955;48.916;2.336;2023-06-22T02:01:05;21.50;96.90
53073;DHT22;38955;48.916;2.336;2023-06-22T02:03:16;21.50;97.10
53073;DHT22;38955;48.916;2.336;2023-06-22T02:05:19;21.50;97.00
53073;DHT22;38955;48.916;2.336;2023-06-22T02:07:23;21.60;97.00
53073;DHT22;38955;48.916;2.336;2023-06-22T02:09:31;21.60;96.90
53073;DHT22;38955;48.916;2.336;2023-06-22T02:11:35;21.60;97.00
53073;DHT22;38955;48.916;2.336;2023-06-22T02:13:38;21.60;96.80
53073;DHT22;38955;48.916;2.336;2023-06-22T02:15:45;21.50;96.80
53073;DHT22;38955;48.916;2.336;2023-06-22T02:17:47;21.60;96.70
53073;DHT22;38955;48.916;2.336;2023-06-22T02:19:51;21.60;96.70
53073;DHT22;38955;48.916;2.336;2023-06-22T02:21:54;21.60;96.50
53073;DHT22;38955;48.916;2.336;2023-06-22T02:23:56;21.50;96.60
53073;DHT22;38955;48.916;2.336;2023-06-22T02:25:58;21.50;96.50
53073;DHT22;38955;48.916;2.336;2023-06-22T02:28:00;21.50;96.60
53073;DHT22;38955;48.916;2.336;2023-06-22T02:30:03;21.50;96.50
53073;DHT22;38955;48.916;2.336;2023-06-22T02:32:05;21.50;96.50
53073;DHT22;38955;48.916;2.336;2023-06-22T02:34:08;21.50;96.40
53073;DHT22;38955;48.916;2.336;2023-06-22T02:36:11;21.40;96.40
53073;DHT22;38955;48.916;2.336;2023-06-22T02:38:14;21.40;96.50
53073;DHT22;38955;48.916;2.336;2023-06-22T02:40:17;21.30;96.50
53073;DHT22;38955;48.916;2.336;2023-06-22T02:42:19;21.20;96.70
53073;DHT22;38955;48.916;2.336;2023-06-22T02:44:23;21.20;96.70
53073;DHT22;38955;48.916;2.336;2023-06-22T02:46:25;21.30;96.60
53073;DHT22;38955;48.916;2.336;2023-06-22T02:48:27;21.30;96.60
53073;DHT22;38955;48.916;2.336;2023-06-22T02:50:29;21.30;96.50
53073;DHT22;38955;48.916;2.336;2023-06-22T02:52:33;21.30;96.70
53073;DHT22;38955;48.916;2.336;2023-06-22T02:54:35;21.30;96.50
53073;DHT22;38955;48.916;2.336;2023-06-22T02:56:37;21.30;96.50
53073;DHT22;38955;48.916;2.336;2023-06-22T02:58:39;21.40;96.50
53073;DHT22;38955;48.916;2.336;2023-06-22T03:00:42;21.30;96.50
53073;DHT22;38955;48.916;2.336;2023-06-22T03:02:44;21.30;96.40
53073;DHT22;38955;48.916;2.336;2023-06-22T03:04:47;21.30;96.50
53073;DHT22;38955;48.916;2.336;2023-06-22T03:06:50;21.30;96.50
53073;DHT22;38955;48.916;2.336;2023-06-22T03:08:59;21.20;96.50
53073;DHT22;38955;48.916;2.336;2023-06-22T03:11:01;21.30;96.50
53073;DHT22;38955;48.916;2.336;2023-06-22T03:13:03;21.30;96.50
53073;DHT22;38955;48.916;2.336;2023-06-22T03:15:06;21.20;96.60
53073;DHT22;38955;48.916;2.336;2023-06-22T03:17:09;21.30;96.60
53073;DHT22;38955;48.916;2.336;2023-06-22T03:19:12;21.30;96.50
53073;DHT22;38955;48.916;2.336;2023-06-22T03:21:15;21.20;96.60
53073;DHT22;38955;48.916;2.336;2023-06-22T03:23:18;21.20;96.70
53073;DHT22;38955;48.916;2.336;2023-06-22T03:25:21;21.20;96.60
53073;DHT22;38955;48.916;2.336;2023-06-22T03:27:24;21.20;96.60
53073;DHT22;38955;48.916;2.336;2023-06-22T03:29:26;21.20;96.60
53073;DHT22;38955;48.916;2.336;2023-06-22T03:31:32;21.20;96.90
53073;DHT22;38955;48.916;2.336;2023-06-22T03:33:34;21.20;96.70
53073;DHT22;38955;48.916;2.336;2023-06-22T03:35:36;21.20;96.70
53073;DHT22;38955;48.916;2.336;2023-06-22T03:37:38;21.20;96.70
53073;DHT22;38955;48.916;2.336;2023-06-22T03:39:40;21.20;96.70
53073;DHT22;38955;48.916;2.336;2023-06-22T03:41:44;21.20;96.80
53073;DHT22;38955;48.916;2.336;2023-06-22T03:43:46;21.20;97.10
53073;DHT22;38955;48.916;2.336;2023-06-22T03:45:48;21.20;97.10
53073;DHT22;38955;48.916;2.336;2023-06-22T03:47:50;21.20;97.10
53073;DHT22;38955;48.916;2.336;2023-06-22T03:49:52;21.20;97.30
53073;DHT22;38955;48.916;2.336;2023-06-22T03:51:56;21.10;97.50
53073;DHT22;38955;48.916;2.336;2023-06-22T03:53:58;21.20;97.50
53073;DHT22;38955;48.916;2.336;2023-06-22T03:56:00;21.20;97.40
53073;DHT22;38955;48.916;2.336;2023-06-22T03:58:04;21.20;97.50
53073;DHT22;38955;48.916;2.336;2023-06-22T04:00:08;21.20;97.40
53073;DHT22;38955;48.916;2.336;2023-06-22T04:02:11;21.10;97.60
53073;DHT22;38955;48.916;2.336;2023-06-22T04:04:13;21.00;97.70
53073;DHT22;38955;48.916;2.336;2023-06-22T04:06:16;21.00;97.70
53073;DHT22;38955;48.916;2.336;2023-06-22T04:08:18;21.10;97.70
53073;DHT22;38955;48.916;2.336;2023-06-22T04:10:20;21.10;97.60
53073;DHT22;38955;48.916;2.336;2023-06-22T04:12:22;21.00;97.70
53073;DHT22;38955;48.916;2.336;2023-06-22T04:14:25;21.10;97.70
53073;DHT22;38955;48.916;2.336;2023-06-22T04:16:28;21.00;97.60
53073;DHT22;38955;48.916;2.336;2023-06-22T04:18:30;21.10;97.60
53073;DHT22;38955;48.916;2.336;2023-06-22T04:20:32;21.10;97.60
53073;DHT22;38955;48.916;2.336;2023-06-22T04:22:34;21.10;97.70
53073;DHT22;38955;48.916;2.336;2023-06-22T04:24:37;21.10;97.50
53073;DHT22;38955;48.916;2.336;2023-06-22T04:26:39;21.10;97.60
53073;DHT22;38955;48.916;2.336;2023-06-22T04:28:43;21.10;97.70
53073;DHT22;38955;48.916;2.336;2023-06-22T04:30:46;21.10;97.60
53073;DHT22;38955;48.916;2.336;2023-06-22T04:32:49;21.20;97.60
53073;DHT22;38955;48.916;2.336;2023-06-22T04:34:58;21.10;97.60
53073;DHT22;38955;48.916;2.336;2023-06-22T04:37:02;21.10;97.70
53073;DHT22;38955;48.916;2.336;2023-06-22T04:39:05;21.10;97.90
53073;DHT22;38955;48.916;2.336;2023-06-22T04:41:08;21.20;97.90
53073;DHT22;38955;48.916;2.336;2023-06-22T04:43:16;21.10;98.00
53073;DHT22;38955;48.916;2.336;2023-06-22T04:45:18;21.10;98.20
53073;DHT22;38955;48.916;2.336;2023-06-22T04:47:22;21.10;98.20
53073;DHT22;38955;48.916;2.336;2023-06-22T04:49:25;21.10;98.60
53073;DHT22;38955;48.916;2.336;2023-06-22T04:51:36;21.00;98.50
53073;DHT22;38955;48.916;2.336;2023-06-22T04:53:39;21.00;99.00
53073;DHT22;38955;48.916;2.336;2023-06-22T04:55:43;21.00;99.10
53073;DHT22;38955;48.916;2.336;2023-06-22T04:57:48;21.00;99.20
53073;DHT22;38955;48.916;2.336;2023-06-22T04:59:53;21.00;99.50
53073;DHT22;38955;48.916;2.336;2023-06-22T05:01:55;20.90;99.40
53073;DHT22;38955;48.916;2.336;2023-06-22T05:03:58;20.90;99.30
53073;DHT22;38955;48.916;2.336;2023-06-22T05:06:03;20.90;99.60
53073;DHT22;38955;48.916;2.336;2023-06-22T05:08:05;20.90;99.70
53073;DHT22;38955;48.916;2.336;2023-06-22T05:10:09;20.90;99.80
53073;DHT22;38955;48.916;2.336;2023-06-22T05:12:12;20.90;99.90
53073;DHT22;38955;48.916;2.336;2023-06-22T05:14:14;20.80;99.90
53073;DHT22;38955;48.916;2.336;2023-06-22T05:16:16;20.80;99.90
53073;DHT22;38955;48.916;2.336;2023-06-22T05:18:18;20.80;99.90
53073;DHT22;38955;48.916;2.336;2023-06-22T05:20:26;20.80;99.90
53073;DHT22;38955;48.916;2.336;2023-06-22T05:22:29;20.60;99.90
53073;DHT22;38955;48.916;2.336;2023-06-22T05:24:31;20.50;99.90
53073;DHT22;38955;48.916;2.336;2023-06-22T05:26:34;20.50;99.90
53073;DHT22;38955;48.916;2.336;2023-06-22T05:28:36;20.40;99.90
53073;DHT22;38955;48.916;2.336;2023-06-22T05:30:38;20.30;99.90
53073;DHT22;38955;48.916;2.336;2023-06-22T05:32:40;20.30;99.90
53073;DHT22;38955;48.916;2.336;2023-06-22T05:34:42;20.30;99.90
53073;DHT22;38955;48.916;2.336;2023-06-22T05:36:45;20.20;99.90
53073;DHT22;38955;48.916;2.336;2023-06-22T05:38:48;20.20;99.90
53073;DHT22;38955;48.916;2.336;2023-06-22T05:40:50;20.20;99.90
53073;DHT22;38955;48.916;2.336;2023-06-22T05:42:52;20.20;99.90
53073;DHT22;38955;48.916;2.336;2023-06-22T05:44:54;20.20;99.90
53073;DHT22;38955;48.916;2.336;2023-06-22T05:46:57;20.10;99.90
53073;DHT22;38955;48.916;2.336;2023-06-22T05:49:00;20.20;99.90
53073;DHT22;38955;48.916;2.336;2023-06-22T05:51:02;20.20;99.90
53073;DHT22;38955;48.916;2.336;2023-06-22T05:53:05;20.10;99.90
53073;DHT22;38955;48.916;2.336;2023-06-22T05:55:09;20.10;99.90
53073;DHT22;38955;48.916;2.336;2023-06-22T05:57:11;20.10;99.90
53073;DHT22;38955;48.916;2.336;2023-06-22T05:59:13;20.10;99.90
53073;DHT22;38955;48.916;2.336;2023-06-22T06:01:15;20.10;99.90
53073;DHT22;38955;48.916;2.336;2023-06-22T06:03:17;20.10;99.90
53073;DHT22;38955;48.916;2.336;2023-06-22T06:05:19;20.00;99.90
53073;DHT22;38955;48.916;2.336;2023-06-22T06:07:25;20.00;99.90
53073;DHT22;38955;48.916;2.336;2023-06-22T06:09:29;20.00;99.90
53073;DHT22;38955;48.916;2.336;2023-06-22T06:11:31;20.00;99.90
53073;DHT22;38955;48.916;2.336;2023-06-22T06:13:35;20.00;99.90
53073;DHT22;38955;48.916;2.336;2023-06-22T06:15:37;20.00;99.90
53073;DHT22;38955;48.916;2.336;2023-06-22T06:17:46;20.00;99.90
53073;DHT22;38955;48.916;2.336;2023-06-22T06:19:48;20.00;99.90
53073;DHT22;38955;48.916;2.336;2023-06-22T06:21:50;20.00;99.90
53073;DHT22;38955;48.916;2.336;2023-06-22T06:23:52;20.00;99.90
53073;DHT22;38955;48.916;2.336;2023-06-22T06:25:56;19.90;99.90
53073;DHT22;38955;48.916;2.336;2023-06-22T06:27:59;19.90;99.90
53073;DHT22;38955;48.916;2.336;2023-06-22T06:30:01;19.80;99.90
53073;DHT22;38955;48.916;2.336;2023-06-22T06:32:04;19.90;99.90
53073;DHT22;38955;48.916;2.336;2023-06-22T06:34:06;19.80;99.90
53073;DHT22;38955;48.916;2.336;2023-06-22T06:36:08;19.80;99.90
53073;DHT22;38955;48.916;2.336;2023-06-22T06:38:11;19.90;99.90
53073;DHT22;38955;48.916;2.336;2023-06-22T06:40:14;19.80;99.90
53073;DHT22;38955;48.916;2.336;2023-06-22T06:42:18;19.70;99.90
53073;DHT22;38955;48.916;2.336;2023-06-22T06:44:21;19.70;99.90
53073;DHT22;38955;48.916;2.336;2023-06-22T06:46:23;19.80;99.90
53073;DHT22;38955;48.916;2.336;2023-06-22T06:48:25;19.70;99.90
53073;DHT22;38955;48.916;2.336;2023-06-22T06:50:27;19.70;99.90
53073;DHT22;38955;48.916;2.336;2023-06-22T06:52:30;19.70;99.90
53073;DHT22;38955;48.916;2.336;2023-06-22T06:54:32;19.70;99.90
53073;DHT22;38955;48.916;2.336;2023-06-22T06:56:34;19.70;99.90
53073;DHT22;38955;48.916;2.336;2023-06-22T06:58:40;19.70;99.90
53073;DHT22;38955;48.916;2.336;2023-06-22T07:00:43;19.60;99.90
53073;DHT22;38955;48.916;2.336;2023-06-22T07:02:45;19.70;99.90
53073;DHT22;38955;48.916;2.336;2023-06-22T07:04:50;19.70;99.90
53073;DHT22;38955;48.916;2.336;2023-06-22T07:06:52;19.70;99.90
53073;DHT22;38955;48.916;2.336;2023-06-22T07:08:54;19.60;99.90
53073;DHT22;38955;48.916;2.336;2023-06-22T07:10:56;19.50;99.90
53073;DHT22;38955;48.916;2.336;2023-06-22T07:12:59;19.60;99.90
53073;DHT22;38955;48.916;2.336;2023-06-22T07:15:03;19.60;99.90
53073;DHT22;38955;48.916;2.336;2023-06-22T07:17:06;19.50;99.90
53073;DHT22;38955;48.916;2.336;2023-06-22T07:19:08;19.50;99.90
53073;DHT22;38955;48.916;2.336;2023-06-22T07:21:11;19.50;99.90
53073;DHT22;38955;48.916;2.336;2023-06-22T07:23:13;19.40;99.90
53073;DHT22;38955;48.916;2.336;2023-06-22T07:25:15;19.40;99.90
53073;DHT22;38955;48.916;2.336;2023-06-22T07:27:18;19.40;99.90
53073;DHT22;38955;48.916;2.336;2023-06-22T07:29:21;19.40;99.90
53073;DHT22;38955;48.916;2.336;2023-06-22T07:31:25;19.40;99.90
53073;DHT22;38955;48.916;2.336;2023-06-22T07:33:27;19.40;99.90
53073;DHT22;38955;48.916;2.336;2023-06-22T07:35:30;19.40;99.90
53073;DHT22;38955;48.916;2.336;2023-06-22T07:37:32;19.40;99.90
53073;DHT22;38955;48.916;2.336;2023-06-22T07:39:35;19.40;99.90
53073;DHT22;38955;48.916;2.336;2023-06-22T07:41:39;19.40;99.90
53073;DHT22;38955;48.916;2.336;2023-06-22T07:43:44;19.40;99.90
53073;DHT22;38955;48.916;2.336;2023-06-22T07:45:48;19.40;99.90
53073;DHT22;38955;48.916;2.336;2023-06-22T07:47:55;19.30;99.90
53073;DHT22;38955;48.916;2.336;2023-06-22T07:49:59;19.30;99.90
53073;DHT22;38955;48.916;2.336;2023-06-22T07:52:05;19.30;99.90
53073;DHT22;38955;48.916;2.336;2023-06-22T07:54:09;19.30;99.90
53073;DHT22;38955;48.916;2.336;2023-06-22T07:56:11;19.30;99.90
53073;DHT22;38955;48.916;2.336;2023-06-22T07:58:13;19.30;99.90
53073;DHT22;38955;48.916;2.336;2023-06-22T08:00:16;19.30;99.90
53073;DHT22;38955;48.916;2.336;2023-06-22T08:02:19;19.30;99.90
53073;DHT22;38955;48.916;2.336;2023-06-22T08:04:22;19.30;99.90
53073;DHT22;38955;48.916;2.336;2023-06-22T08:06:24;19.30;99.90
53073;DHT22;38955;48.916;2.336;2023-06-22T08:08:27;19.30;99.90
53073;DHT22;38955;48.916;2.336;2023-06-22T08:10:29;19.30;99.90
53073;DHT22;38955;48.916;2.336;2023-06-22T08:12:31;19.30;99.90
53073;DHT22;38955;48.916;2.336;2023-06-22T08:14:37;19.30;99.90
53073;DHT22;38955;48.916;2.336;2023-06-22T08:16:40;19.30;99.90
53073;DHT22;38955;48.916;2.336;2023-06-22T08:18:43;19.30;99.90
53073;DHT22;38955;48.916;2.336;2023-06-22T08:20:46;19.40;99.90
53073;DHT22;38955;48.916;2.336;2023-06-22T08:22:48;19.40;99.90
53073;DHT22;38955;48.916;2.336;2023-06-22T08:24:50;19.30;99.90
53073;DHT22;38955;48.916;2.336;2023-06-22T08:26:52;19.40;99.90
53073;DHT22;38955;48.916;2.336;2023-06-22T08:28:55;19.40;99.90
53073;DHT22;38955;48.916;2.336;2023-06-22T08:30:57;19.40;99.90
53073;DHT22;38955;48.916;2.336;2023-06-22T08:32:59;19.40;99.90
53073;DHT22;38955;48.916;2.336;2023-06-22T08:35:01;19.50;99.90
53073;DHT22;38955;48.916;2.336;2023-06-22T08:37:05;19.50;99.90
53073;DHT22;38955;48.916;2.336;2023-06-22T08:39:08;19.40;99.90
53073;DHT22;38955;48.916;2.336;2023-06-22T08:41:10;19.40;99.90
53073;DHT22;38955;48.916;2.336;2023-06-22T08:43:13;19.40;99.90
53073;DHT22;38955;48.916;2.336;2023-06-22T08:45:15;19.50;99.90
53073;DHT22;38955;48.916;2.336;2023-06-22T08:49:20;19.40;99.90
53073;DHT22;38955;48.916;2.336;2023-06-22T08:51:22;19.30;99.90
53073;DHT22;38955;48.916;2.336;2023-06-22T08:53:25;19.40;99.90
53073;DHT22;38955;48.916;2.336;2023-06-22T08:55:27;19.40;99.90
53073;DHT22;38955;48.916;2.336;2023-06-22T08:57:30;19.30;99.90
53073;DHT22;38955;48.916;2.336;2023-06-22T08:59:37;19.40;99.90
53073;DHT22;38955;48.916;2.336;2023-06-22T09:01:39;19.40;99.90
53073;DHT22;38955;48.916;2.336;2023-06-22T09:03:41;19.50;99.90
53073;DHT22;38955;48.916;2.336;2023-06-22T09:05:44;19.50;99.90
53073;DHT22;38955;48.916;2.336;2023-06-22T09:07:46;19.50;99.90
53073;DHT22;38955;48.916;2.336;2023-06-22T09:09:50;19.60;99.90
53073;DHT22;38955;48.916;2.336;2023-06-22T09:11:52;19.60;99.90
53073;DHT22;38955;48.916;2.336;2023-06-22T09:13:54;19.60;99.90
53073;DHT22;38955;48.916;2.336;2023-06-22T09:15:56;19.60;99.90
53073;DHT22;38955;48.916;2.336;2023-06-22T09:17:59;19.60;99.90
53073;DHT22;38955;48.916;2.336;2023-06-22T09:20:02;19.70;99.90
53073;DHT22;38955;48.916;2.336;2023-06-22T09:22:08;19.80;99.90
53073;DHT22;38955;48.916;2.336;2023-06-22T09:24:11;19.90;99.90
53073;DHT22;38955;48.916;2.336;2023-06-22T09:26:14;19.90;99.90
53073;DHT22;38955;48.916;2.336;2023-06-22T09:28:16;20.00;99.90
53073;DHT22;38955;48.916;2.336;2023-06-22T09:30:19;20.10;99.90
53073;DHT22;38955;48.916;2.336;2023-06-22T09:32:21;20.20;99.90
53073;DHT22;38955;48.916;2.336;2023-06-22T09:34:23;20.20;99.90
53073;DHT22;38955;48.916;2.336;2023-06-22T09:36:25;20.20;99.90
53073;DHT22;38955;48.916;2.336;2023-06-22T09:38:27;20.20;99.90
53073;DHT22;38955;48.916;2.336;2023-06-22T09:40:29;20.30;99.90
53073;DHT22;38955;48.916;2.336;2023-06-22T09:42:33;20.30;99.90
53073;DHT22;38955;48.916;2.336;2023-06-22T09:44:36;20.30;99.90
53073;DHT22;38955;48.916;2.336;2023-06-22T09:46:38;20.40;99.90
53073;DHT22;38955;48.916;2.336;2023-06-22T09:48:40;20.30;99.90
53073;DHT22;38955;48.916;2.336;2023-06-22T09:50:42;20.40;99.90
53073;DHT22;38955;48.916;2.336;2023-06-22T09:52:44;20.50;99.90
53073;DHT22;38955;48.916;2.336;2023-06-22T09:54:49;20.40;99.90
53073;DHT22;38955;48.916;2.336;2023-06-22T09:56:51;20.40;99.90
53073;DHT22;38955;48.916;2.336;2023-06-22T09:58:55;20.50;99.90
53073;DHT22;38955;48.916;2.336;2023-06-22T10:01:14;20.40;99.90
53073;DHT22;38955;48.916;2.336;2023-06-22T10:03:16;20.40;99.90
53073;DHT22;38955;48.916;2.336;2023-06-22T10:05:19;20.40;99.90
53073;DHT22;38955;48.916;2.336;2023-06-22T10:07:21;20.50;99.90
53073;DHT22;38955;48.916;2.336;2023-06-22T10:09:23;20.50;99.90
53073;DHT22;38955;48.916;2.336;2023-06-22T10:11:25;20.60;99.90
53073;DHT22;38955;48.916;2.336;2023-06-22T10:13:32;20.60;99.90
53073;DHT22;38955;48.916;2.336;2023-06-22T10:15:35;20.60;99.90
53073;DHT22;38955;48.916;2.336;2023-06-22T10:17:37;20.70;99.90
53073;DHT22;38955;48.916;2.336;2023-06-22T10:19:39;20.60;99.90
53073;DHT22;38955;48.916;2.336;2023-06-22T10:21:43;20.50;99.90
53073;DHT22;38955;48.916;2.336;2023-06-22T10:23:45;20.60;99.90
53073;DHT22;38955;48.916;2.336;2023-06-22T10:25:47;20.70;99.90
53073;DHT22;38955;48.916;2.336;2023-06-22T10:27:50;20.80;99.90
53073;DHT22;38955;48.916;2.336;2023-06-22T10:29:52;20.90;99.90
53073;DHT22;38955;48.916;2.336;2023-06-22T10:31:57;21.00;99.90
53073;DHT22;38955;48.916;2.336;2023-06-22T10:33:59;21.10;99.90
53073;DHT22;38955;48.916;2.336;2023-06-22T10:36:01;21.30;99.90
53073;DHT22;38955;48.916;2.336;2023-06-22T10:38:03;21.40;99.90
53073;DHT22;38955;48.916;2.336;2023-06-22T10:40:07;21.50;99.90
53073;DHT22;38955;48.916;2.336;2023-06-22T10:42:10;21.40;99.90
53073;DHT22;38955;48.916;2.336;2023-06-22T10:44:12;21.40;99.90
53073;DHT22;38955;48.916;2.336;2023-06-22T10:46:14;21.60;99.90
53073;DHT22;38955;48.916;2.336;2023-06-22T10:48:17;21.90;99.90
53073;DHT22;38955;48.916;2.336;2023-06-22T10:50:19;22.00;99.90
53073;DHT22;38955;48.916;2.336;2023-06-22T10:52:22;22.00;99.90
53073;DHT22;38955;48.916;2.336;2023-06-22T10:54:24;22.00;99.90
53073;DHT22;38955;48.916;2.336;2023-06-22T10:56:26;22.00;99.90
53073;DHT22;38955;48.916;2.336;2023-06-22T10:58:28;21.90;99.90
53073;DHT22;38955;48.916;2.336;2023-06-22T11:00:30;22.00;99.90
53073;DHT22;38955;48.916;2.336;2023-06-22T11:02:32;22.10;99.90
53073;DHT22;38955;48.916;2.336;2023-06-22T11:04:36;21.90;99.90
53073;DHT22;38955;48.916;2.336;2023-06-22T11:06:38;22.10;99.90
53073;DHT22;38955;48.916;2.336;2023-06-22T11:08:43;22.10;99.90
53073;DHT22;38955;48.916;2.336;2023-06-22T11:11:05;22.10;99.90
53073;DHT22;38955;48.916;2.336;2023-06-22T11:13:07;22.20;99.90
53073;DHT22;38955;48.916;2.336;2023-06-22T11:15:14;22.30;99.90
53073;DHT22;38955;48.916;2.336;2023-06-22T11:17:16;22.50;99.90
53073;DHT22;38955;48.916;2.336;2023-06-22T11:19:19;22.50;99.90
53073;DHT22;38955;48.916;2.336;2023-06-22T11:21:22;22.70;99.90
53073;DHT22;38955;48.916;2.336;2023-06-22T11:23:24;22.50;99.90
53073;DHT22;38955;48.916;2.336;2023-06-22T11:25:28;22.30;99.90
53073;DHT22;38955;48.916;2.336;2023-06-22T11:27:30;22.10;99.90
53073;DHT22;38955;48.916;2.336;2023-06-22T11:29:32;22.20;99.90
53073;DHT22;38955;48.916;2.336;2023-06-22T11:31:39;22.20;99.90
53073;DHT22;38955;48.916;2.336;2023-06-22T11:33:41;22.20;99.90
53073;DHT22;38955;48.916;2.336;2023-06-22T11:35:43;22.30;99.90
53073;DHT22;38955;48.916;2.336;2023-06-22T11:37:47;22.40;99.90
53073;DHT22;38955;48.916;2.336;2023-06-22T11:39:49;22.40;99.90
53073;DHT22;38955;48.916;2.336;2023-06-22T11:42:08;22.30;99.90
53073;DHT22;38955;48.916;2.336;2023-06-22T11:44:10;22.40;99.90
53073;DHT22;38955;48.916;2.336;2023-06-22T11:46:12;22.40;99.90
53073;DHT22;38955;48.916;2.336;2023-06-22T11:48:15;22.40;99.90
53073;DHT22;38955;48.916;2.336;2023-06-22T11:50:17;22.50;99.90
53073;DHT22;38955;48.916;2.336;2023-06-22T11:52:19;22.40;99.90
53073;DHT22;38955;48.916;2.336;2023-06-22T11:54:22;22.50;99.90
53073;DHT22;38955;48.916;2.336;2023-06-22T11:56:24;22.50;99.90
53073;DHT22;38955;48.916;2.336;2023-06-22T11:58:26;22.60;99.90
53073;DHT22;38955;48.916;2.336;2023-06-22T12:00:29;22.70;99.90
53073;DHT22;38955;48.916;2.336;2023-06-22T12:02:31;22.70;99.90
53073;DHT22;38955;48.916;2.336;2023-06-22T12:04:34;22.60;99.90
53073;DHT22;38955;48.916;2.336;2023-06-22T12:06:38;22.60;99.90
53073;DHT22;38955;48.916;2.336;2023-06-22T12:08:44;22.60;99.90
53073;DHT22;38955;48.916;2.336;2023-06-22T12:10:49;22.70;99.90
53073;DHT22;38955;48.916;2.336;2023-06-22T12:12:51;22.60;99.90
53073;DHT22;38955;48.916;2.336;2023-06-22T12:14:54;22.70;99.90
53073;DHT22;38955;48.916;2.336;2023-06-22T12:16:56;22.80;99.90
53073;DHT22;38955;48.916;2.336;2023-06-22T12:18:58;22.80;99.90
53073;DHT22;38955;48.916;2.336;2023-06-22T12:21:00;22.90;99.90
53073;DHT22;38955;48.916;2.336;2023-06-22T12:23:02;22.90;99.90
53073;DHT22;38955;48.916;2.336;2023-06-22T12:25:05;22.90;99.90
53073;DHT22;38955;48.916;2.336;2023-06-22T12:27:09;22.90;99.90
53073;DHT22;38955;48.916;2.336;2023-06-22T12:29:12;23.00;99.90
53073;DHT22;38955;48.916;2.336;2023-06-22T12:31:14;23.00;99.90
53073;DHT22;38955;48.916;2.336;2023-06-22T12:33:16;23.10;99.90
53073;DHT22;38955;48.916;2.336;2023-06-22T12:35:19;23.30;99.90
53073;DHT22;38955;48.916;2.336;2023-06-22T12:37:21;23.20;99.90
53073;DHT22;38955;48.916;2.336;2023-06-22T12:39:23;23.30;99.90
53073;DHT22;38955;48.916;2.336;2023-06-22T12:41:25;23.30;99.90
53073;DHT22;38955;48.916;2.336;2023-06-22T12:43:28;23.40;99.90
53073;DHT22;38955;48.916;2.336;2023-06-22T12:45:31;23.30;99.90
53073;DHT22;38955;48.916;2.336;2023-06-22T12:47:35;23.20;99.90
53073;DHT22;38955;48.916;2.336;2023-06-22T12:49:37;23.10;99.90
53073;DHT22;38955;48.916;2.336;2023-06-22T12:51:40;23.20;99.90
53073;DHT22;38955;48.916;2.336;2023-06-22T12:53:44;23.20;99.90
53073;DHT22;38955;48.916;2.336;2023-06-22T12:55:46;23.30;99.90
53073;DHT22;38955;48.916;2.336;2023-06-22T12:57:48;23.30;99.90
53073;DHT22;38955;48.916;2.336;2023-06-22T12:59:51;23.30;99.90